Time;durP1;ratioP1;P1;durP2;ratioP2;P2;SDS_P1;SDS_P2;PMS_P1;PMS_P2;Temp;Humidity;BMP_temperature;BMP_pressure;BME280_temperature;BME280_humidity;BME280_pressure;Samples;Min_cycle;Max_cycle;Signal;HPM_P1;HPM_P2
2022/05/09 00:01:58;;;;;;;5.70;5.20;;;;;;;;;;4951530;28;20193;-77
2022/05/09 00:04:23;;;;;;;6.23;5.67;;;;;;;;;;4951286;28;20194;-78
2022/05/09 00:06:49;;;;;;;6.87;6.13;;;;;;;;;;4950963;28;20198;-78
2022/05/09 00:09:14;;;;;;;7.67;6.73;;;;;;;;;;4960296;28;20219;-77
2022/05/09 00:11:40;;;;;;;8.97;6.33;;;;;;;;;;4948074;28;20213;-78
2022/05/09 00:14:05;;;;;;;6.87;6.17;;;;;;;;;;4953706;28;20183;-77
2022/05/09 00:16:33;;;;;;;6.87;6.27;;;;;;;;;;4971261;28;20181;-78
2022/05/09 00:19:03;;;;;;;7.07;6.47;;;;;;;;;;4946816;28;20188;-78
2022/05/09 00:21:33;;;;;;;7.40;6.70;;;;;;;;;;4956605;28;20218;-78
2022/05/09 00:23:59;;;;;;;9.23;7.30;;;;;;;;;;4955061;28;20226;-77
2022/05/09 00:26:27;;;;;;;10.37;7.77;;;;;;;;;;4954225;28;20216;-78
2022/05/09 00:28:53;;;;;;;7.60;7.00;;;;;;;;;;4949743;28;20207;-78
2022/05/09 00:31:18;;;;;;;7.73;6.93;;;;;;;;;;4957188;28;20186;-77
2022/05/09 00:33:43;;;;;;;7.60;6.90;;;;;;;;;;4952340;28;20304;-77
2022/05/09 00:36:09;;;;;;;8.07;7.30;;;;;;;;;;4948275;28;20185;-78
2022/05/09 00:38:34;;;;;;;7.83;6.87;;;;;;;;;;4955273;28;20272;-78
2022/05/09 00:43:43;;;;;;;6.53;5.93;;;;;;;;;;4951117;28;20193;-77
2022/05/09 00:46:08;;;;;;;7.47;6.70;;;;;;;;;;4952663;28;20395;-77
2022/05/09 00:48:34;;;;;;;6.90;6.30;;;;;;;;;;4953059;28;20174;-77
2022/05/09 00:51:00;;;;;;;7.53;6.83;;;;;;;;;;4946884;28;20196;-77
2022/05/09 00:53:29;;;;;;;7.53;6.73;;;;;;;;;;4948804;28;20179;-78
2022/05/09 00:55:56;;;;;;;7.40;6.80;;;;;;;;;;4950348;28;20189;-77
2022/05/09 00:58:32;;;;;;;8.90;7.07;;;;;;;;;;4952775;28;20188;-77
2022/05/09 01:01:01;;;;;;;7.80;7.03;;;;;;;;;;4950735;28;20781;-78
2022/05/09 01:03:32;;;;;;;7.77;7.17;;;;;;;;;;4950310;28;20234;-78
2022/05/09 01:05:57;;;;;;;8.13;7.33;;;;;;;;;;4957898;28;20190;-77
2022/05/09 01:08:24;;;;;;;7.57;6.87;;;;;;;;;;4948014;28;20227;-77
2022/05/09 01:10:49;;;;;;;9.17;7.33;;;;;;;;;;4949767;28;20192;-77
2022/05/09 01:13:16;;;;;;;7.67;6.90;;;;;;;;;;4949313;28;20262;-77
2022/05/09 01:15:43;;;;;;;6.53;5.93;;;;;;;;;;4948535;28;20179;-77
2022/05/09 01:18:09;;;;;;;7.57;6.83;;;;;;;;;;4945650;28;20214;-77
2022/05/09 01:20:35;;;;;;;7.63;7.00;;;;;;;;;;4945865;28;20189;-77
2022/05/09 01:23:00;;;;;;;7.60;6.73;;;;;;;;;;4946205;28;20185;-77
2022/05/09 01:25:27;;;;;;;7.43;6.73;;;;;;;;;;4954193;28;20177;-78
2022/05/09 01:27:53;;;;;;;7.33;6.57;;;;;;;;;;4948534;28;20241;-78
2022/05/09 01:30:19;;;;;;;7.57;6.83;;;;;;;;;;4947751;28;20224;-77
2022/05/09 01:32:45;;;;;;;8.97;7.53;;;;;;;;;;4948142;28;20205;-77
2022/05/09 01:35:18;;;;;;;7.60;6.80;;;;;;;;;;4952000;28;20231;-77
2022/05/09 01:37:45;;;;;;;7.47;6.83;;;;;;;;;;4970280;28;20165;-78
2022/05/09 01:40:10;;;;;;;6.50;5.90;;;;;;;;;;4954505;28;20182;-77
2022/05/09 01:42:36;;;;;;;6.60;6.00;;;;;;;;;;4950272;28;20243;-77
2022/05/09 01:45:02;;;;;;;7.20;6.50;;;;;;;;;;4962241;28;20193;-78
2022/05/09 01:50:11;;;;;;;7.00;6.30;;;;;;;;;;4951919;28;20211;-77
2022/05/09 01:52:36;;;;;;;8.73;7.93;;;;;;;;;;4955968;28;20179;-77
2022/05/09 01:55:02;;;;;;;8.20;7.43;;;;;;;;;;4959309;28;20193;-77
2022/05/09 01:57:27;;;;;;;8.30;7.60;;;;;;;;;;4956441;28;20185;-78
2022/05/09 01:59:52;;;;;;;9.77;8.17;;;;;;;;;;4953623;28;20196;-77
2022/05/09 02:02:19;;;;;;;8.03;7.23;;;;;;;;;;4949734;28;20185;-77
2022/05/09 02:04:44;;;;;;;8.37;7.57;;;;;;;;;;4958490;28;20188;-77
2022/05/09 02:07:10;;;;;;;7.57;6.77;;;;;;;;;;4952050;28;20181;-77
2022/05/09 02:09:37;;;;;;;8.90;7.37;;;;;;;;;;4958785;28;20218;-78
2022/05/09 02:12:03;;;;;;;6.83;6.20;;;;;;;;;;4947675;28;20184;-77
2022/05/09 02:14:28;;;;;;;7.73;6.67;;;;;;;;;;4949226;28;20196;-77
2022/05/09 02:16:53;;;;;;;8.93;8.03;;;;;;;;;;4968084;28;20182;-77
2022/05/09 02:19:18;;;;;;;7.70;6.87;;;;;;;;;;4953359;28;20255;-78
2022/05/09 02:21:43;;;;;;;7.73;7.00;;;;;;;;;;4969925;28;20176;-77
2022/05/09 02:24:09;;;;;;;6.60;6.00;;;;;;;;;;4956035;28;20211;-77
2022/05/09 02:26:34;;;;;;;8.47;7.67;;;;;;;;;;4953697;28;20439;-78
2022/05/09 02:28:59;;;;;;;7.00;6.33;;;;;;;;;;4956411;28;20239;-77
2022/05/09 02:31:26;;;;;;;7.53;6.83;;;;;;;;;;4953628;28;20249;-78
2022/05/09 02:33:51;;;;;;;7.37;6.67;;;;;;;;;;4951290;28;20533;-78
2022/05/09 02:36:16;;;;;;;8.20;6.90;;;;;;;;;;4957915;28;20204;-77
2022/05/09 02:38:41;;;;;;;7.07;6.37;;;;;;;;;;4951338;28;20181;-78
2022/05/09 02:41:06;;;;;;;8.13;7.40;;;;;;;;;;4952499;28;20181;-77
2022/05/09 02:43:34;;;;;;;8.30;7.50;;;;;;;;;;4948276;28;20220;-77
2022/05/09 02:46:03;;;;;;;8.03;7.27;;;;;;;;;;4951275;28;20189;-78
2022/05/09 02:48:29;;;;;;;7.90;7.20;;;;;;;;;;4952477;28;20189;-77
2022/05/09 02:50:54;;;;;;;10.23;8.43;;;;;;;;;;4952249;28;20239;-77
2022/05/09 02:53:20;;;;;;;8.57;7.63;;;;;;;;;;4974372;28;20175;-77
2022/05/09 02:55:45;;;;;;;8.23;7.43;;;;;;;;;;4951985;28;20192;-77
2022/05/09 02:58:10;;;;;;;8.50;7.70;;;;;;;;;;4958093;28;20213;-77
2022/05/09 03:00:36;;;;;;;11.00;10.00;;;;;;;;;;4956711;28;20259;-77
2022/05/09 03:05:45;;;;;;;10.73;8.77;;;;;;;;;;4958470;28;20446;-77
2022/05/09 03:08:11;;;;;;;9.73;8.50;;;;;;;;;;4960055;28;20192;-77
2022/05/09 03:10:38;;;;;;;10.10;9.10;;;;;;;;;;4946378;28;20254;-77
2022/05/09 03:13:04;;;;;;;12.43;10.50;;;;;;;;;;4951741;28;20184;-77
2022/05/09 03:15:31;;;;;;;10.70;8.70;;;;;;;;;;4966265;28;20199;-77
2022/05/09 03:17:57;;;;;;;13.10;11.97;;;;;;;;;;4960029;28;20223;-77
2022/05/09 03:20:22;;;;;;;9.07;8.27;;;;;;;;;;4954601;28;20337;-77
2022/05/09 03:22:48;;;;;;;11.47;9.50;;;;;;;;;;4953687;28;20180;-78
2022/05/09 03:25:13;;;;;;;9.63;8.63;;;;;;;;;;4955694;28;20196;-77
2022/05/09 03:27:38;;;;;;;9.83;8.83;;;;;;;;;;4949725;28;20197;-78
2022/05/09 03:30:04;;;;;;;9.07;8.17;;;;;;;;;;4950891;28;20423;-78
2022/05/09 03:32:30;;;;;;;9.87;8.97;;;;;;;;;;4948641;28;20207;-77
2022/05/09 03:34:55;;;;;;;11.70;10.33;;;;;;;;;;4950241;28;20225;-78
2022/05/09 03:37:20;;;;;;;13.83;12.53;;;;;;;;;;4948683;28;20173;-77
2022/05/09 03:39:45;;;;;;;10.40;9.27;;;;;;;;;;4956200;28;20187;-77
2022/05/09 03:42:10;;;;;;;9.83;8.83;;;;;;;;;;4951018;28;20199;-76
2022/05/09 03:44:36;;;;;;;9.87;8.87;;;;;;;;;;4950378;28;20279;-77
2022/05/09 03:47:01;;;;;;;9.47;8.57;;;;;;;;;;4950334;28;20204;-77
2022/05/09 03:49:27;;;;;;;9.53;8.57;;;;;;;;;;4951376;28;20202;-77
2022/05/09 03:51:52;;;;;;;9.20;8.30;;;;;;;;;;4949522;28;20177;-77
2022/05/09 03:54:17;;;;;;;11.73;8.87;;;;;;;;;;4951481;28;20180;-77
2022/05/09 03:56:42;;;;;;;11.50;10.40;;;;;;;;;;4949343;28;20200;-77
2022/05/09 03:59:08;;;;;;;13.30;9.87;;;;;;;;;;4953371;28;20195;-78
2022/05/09 04:01:34;;;;;;;10.40;9.37;;;;;;;;;;4963874;28;20320;-77
2022/05/09 04:03:59;;;;;;;10.57;9.50;;;;;;;;;;4951936;28;20193;-77
2022/05/09 04:06:25;;;;;;;9.67;8.87;;;;;;;;;;4951295;28;20187;-77
2022/05/09 04:08:50;;;;;;;10.33;9.17;;;;;;;;;;4947971;28;20251;-78
2022/05/09 04:11:15;;;;;;;10.57;9.53;;;;;;;;;;4953108;28;20186;-77
2022/05/09 04:13:40;;;;;;;10.40;8.67;;;;;;;;;;4947630;28;20246;-78
2022/05/09 04:18:51;;;;;;;11.90;10.70;;;;;;;;;;4950437;28;20254;-77
2022/05/09 04:21:16;;;;;;;10.40;9.40;;;;;;;;;;4953183;28;20206;-78
2022/05/09 04:23:41;;;;;;;18.73;11.57;;;;;;;;;;4967040;28;20184;-77
2022/05/09 04:26:07;;;;;;;11.57;10.47;;;;;;;;;;4951100;28;20180;-77
2022/05/09 04:28:32;;;;;;;11.27;10.17;;;;;;;;;;4956532;28;20254;-77
2022/05/09 04:30:58;;;;;;;12.03;10.70;;;;;;;;;;4947837;28;20185;-78
2022/05/09 04:33:23;;;;;;;9.90;8.80;;;;;;;;;;4945687;28;20291;-77
2022/05/09 04:35:48;;;;;;;11.90;10.70;;;;;;;;;;4962829;28;20275;-77
2022/05/09 04:38:16;;;;;;;12.83;11.73;;;;;;;;;;4955302;28;20191;-78
2022/05/09 04:40:41;;;;;;;29.40;13.23;;;;;;;;;;4963367;28;20180;-78
2022/05/09 04:43:07;;;;;;;13.20;10.97;;;;;;;;;;4947732;28;20229;-77
2022/05/09 04:45:32;;;;;;;15.97;12.83;;;;;;;;;;4955012;28;20179;-78
2022/05/09 04:47:57;;;;;;;14.33;12.63;;;;;;;;;;4954022;28;20222;-77
2022/05/09 04:50:23;;;;;;;12.70;11.50;;;;;;;;;;4946386;28;20215;-78
2022/05/09 04:52:49;;;;;;;11.87;10.67;;;;;;;;;;4959901;28;20186;-78
2022/05/09 04:55:15;;;;;;;12.80;11.57;;;;;;;;;;4948242;28;20319;-78
2022/05/09 04:57:41;;;;;;;22.80;20.90;;;;;;;;;;4952884;28;20213;-77
2022/05/09 05:00:08;;;;;;;14.00;12.60;;;;;;;;;;4970163;28;20445;-77
2022/05/09 05:02:33;;;;;;;11.17;9.93;;;;;;;;;;4954446;28;20220;-77
2022/05/09 05:04:58;;;;;;;12.70;11.40;;;;;;;;;;4968689;28;20226;-77
2022/05/09 05:07:23;;;;;;;13.27;10.67;;;;;;;;;;4949787;28;20322;-77
2022/05/09 05:09:49;;;;;;;13.97;10.37;;;;;;;;;;4957737;28;20206;-77
2022/05/09 05:12:14;;;;;;;11.20;10.10;;;;;;;;;;4954703;28;20191;-77
2022/05/09 05:14:39;;;;;;;15.03;10.30;;;;;;;;;;4964687;28;20233;-77
2022/05/09 05:17:04;;;;;;;13.13;11.90;;;;;;;;;;4956157;28;20193;-77
2022/05/09 05:19:31;;;;;;;10.73;9.63;;;;;;;;;;4953107;28;20194;-77
2022/05/09 05:21:57;;;;;;;10.57;9.57;;;;;;;;;;4955207;28;20187;-77
2022/05/09 05:24:22;;;;;;;10.43;9.33;;;;;;;;;;4952820;28;20196;-77
2022/05/09 05:26:47;;;;;;;12.00;10.03;;;;;;;;;;4957136;28;20172;-77
2022/05/09 05:29:14;;;;;;;10.40;9.40;;;;;;;;;;4954343;28;20219;-77
2022/05/09 05:31:39;;;;;;;11.53;10.43;;;;;;;;;;4952608;28;20188;-77
2022/05/09 05:34:04;;;;;;;11.57;10.37;;;;;;;;;;4955218;28;20264;-77
2022/05/09 05:36:30;;;;;;;10.50;9.50;;;;;;;;;;4956955;28;20177;-77
2022/05/09 05:38:55;;;;;;;12.97;10.67;;;;;;;;;;4961160;28;20188;-77
2022/05/09 05:41:21;;;;;;;13.90;9.80;;;;;;;;;;4954796;28;20215;-77
2022/05/09 05:43:46;;;;;;;10.60;9.50;;;;;;;;;;4975581;28;20289;-77
2022/05/09 05:46:12;;;;;;;9.80;8.80;;;;;;;;;;4955984;28;20188;-77
2022/05/09 05:48:37;;;;;;;13.07;10.00;;;;;;;;;;4966815;28;20274;-79
2022/05/09 05:51:02;;;;;;;10.30;9.40;;;;;;;;;;4952924;28;20184;-78
2022/05/09 05:53:28;;;;;;;9.60;8.73;;;;;;;;;;4964354;28;20180;-77
2022/05/09 05:55:53;;;;;;;10.80;9.70;;;;;;;;;;4957346;28;20189;-77
2022/05/09 05:58:18;;;;;;;9.90;9.00;;;;;;;;;;4950807;28;20182;-77
2022/05/09 06:00:44;;;;;;;10.17;9.23;;;;;;;;;;4955119;28;20200;-78
2022/05/09 06:03:09;;;;;;;9.20;8.40;;;;;;;;;;4949717;28;20199;-77
2022/05/09 06:05:34;;;;;;;9.57;8.57;;;;;;;;;;4953714;28;20229;-77
2022/05/09 06:07:59;;;;;;;9.93;9.03;;;;;;;;;;4962294;28;20193;-77
2022/05/09 06:10:30;;;;;;;9.93;8.93;;;;;;;;;;4955532;28;20203;-77
2022/05/09 06:12:55;;;;;;;9.33;8.43;;;;;;;;;;4955361;28;20182;-78
2022/05/09 06:15:31;;;;;;;9.70;8.80;;;;;;;;;;4942371;28;20181;-77
2022/05/09 06:17:57;;;;;;;9.93;9.03;;;;;;;;;;4952172;28;20187;-77
2022/05/09 06:20:23;;;;;;;9.67;8.77;;;;;;;;;;4951134;28;20182;-79
2022/05/09 06:22:48;;;;;;;11.07;9.97;;;;;;;;;;4954013;28;20501;-78
2022/05/09 06:25:15;;;;;;;8.57;7.77;;;;;;;;;;4953549;28;20189;-78
2022/05/09 06:27:41;;;;;;;10.60;9.10;;;;;;;;;;4955923;28;20236;-77
2022/05/09 06:30:07;;;;;;;10.63;9.50;;;;;;;;;;4954847;28;20221;-78
2022/05/09 06:32:33;;;;;;;14.40;13.00;;;;;;;;;;4960810;28;20203;-78
2022/05/09 06:34:59;;;;;;;9.90;9.00;;;;;;;;;;4955075;28;20313;-78
2022/05/09 06:37:24;;;;;;;9.87;8.97;;;;;;;;;;4955653;28;20186;-78
2022/05/09 06:39:52;;;;;;;10.60;9.57;;;;;;;;;;4958355;28;20184;-77
2022/05/09 06:42:17;;;;;;;9.63;8.73;;;;;;;;;;4954470;28;20193;-78
2022/05/09 06:44:43;;;;;;;9.90;9.00;;;;;;;;;;4955887;28;20177;-78
2022/05/09 06:47:11;;;;;;;10.93;9.83;;;;;;;;;;4956107;28;20182;-78
2022/05/09 06:49:36;;;;;;;9.90;8.47;;;;;;;;;;4956540;28;20257;-78
2022/05/09 06:52:01;;;;;;;10.03;9.17;;;;;;;;;;4955020;28;20174;-78
2022/05/09 06:54:26;;;;;;;10.03;9.07;;;;;;;;;;4952551;28;20185;-78
2022/05/09 06:56:52;;;;;;;9.37;8.37;;;;;;;;;;4975062;28;20240;-77
2022/05/09 06:59:19;;;;;;;13.57;10.03;;;;;;;;;;4952420;28;20188;-78
2022/05/09 07:01:45;;;;;;;10.60;8.73;;;;;;;;;;4952018;28;20206;-78
2022/05/09 07:04:10;;;;;;;10.50;9.53;;;;;;;;;;4955167;28;20209;-77
2022/05/09 07:06:36;;;;;;;10.53;9.53;;;;;;;;;;4956337;28;20217;-78
2022/05/09 07:09:01;;;;;;;10.40;9.30;;;;;;;;;;4952308;28;20238;-78
2022/05/09 07:11:26;;;;;;;10.47;9.47;;;;;;;;;;4953927;28;20175;-78
2022/05/09 07:13:51;;;;;;;10.07;8.03;;;;;;;;;;4949572;28;20189;-78
2022/05/09 07:16:17;;;;;;;12.17;9.00;;;;;;;;;;4955978;28;20245;-78
2022/05/09 07:18:43;;;;;;;9.23;8.33;;;;;;;;;;4952153;28;20184;-78
2022/05/09 07:21:08;;;;;;;9.17;8.37;;;;;;;;;;4952173;28;20190;-78
2022/05/09 07:23:34;;;;;;;11.17;8.80;;;;;;;;;;4950306;28;20172;-78
2022/05/09 07:26:00;;;;;;;10.27;9.37;;;;;;;;;;4951562;28;20188;-77
2022/05/09 07:28:28;;;;;;;9.00;8.17;;;;;;;;;;4953255;28;20206;-78
2022/05/09 07:30:53;;;;;;;9.50;8.70;;;;;;;;;;4956465;28;20203;-78
2022/05/09 07:33:19;;;;;;;12.50;11.20;;;;;;;;;;4957213;28;20222;-78
2022/05/09 07:35:45;;;;;;;9.53;8.73;;;;;;;;;;4954665;28;20252;-78
2022/05/09 07:38:13;;;;;;;9.97;8.93;;;;;;;;;;4950776;28;20286;-78
2022/05/09 07:40:40;;;;;;;9.47;8.57;;;;;;;;;;4962455;28;20193;-79
2022/05/09 07:43:14;;;;;;;13.03;9.93;;;;;;;;;;4949193;28;20185;-78
2022/05/09 07:45:39;;;;;;;9.97;8.67;;;;;;;;;;4964373;28;20228;-79
2022/05/09 07:48:05;;;;;;;10.23;8.93;;;;;;;;;;4959487;28;20182;-77
2022/05/09 07:50:30;;;;;;;9.83;8.27;;;;;;;;;;4968827;28;20228;-78
2022/05/09 07:52:55;;;;;;;8.30;7.50;;;;;;;;;;4952953;28;20223;-78
2022/05/09 07:55:20;;;;;;;10.20;8.37;;;;;;;;;;4951395;28;20191;-78
2022/05/09 07:57:46;;;;;;;8.67;7.87;;;;;;;;;;4946869;28;20192;-78
2022/05/09 08:00:11;;;;;;;7.90;7.20;;;;;;;;;;4958482;28;20193;-78
2022/05/09 08:02:40;;;;;;;11.80;8.10;;;;;;;;;;4967355;28;20699;-78
2022/05/09 08:05:06;;;;;;;8.77;7.97;;;;;;;;;;4951018;28;20202;-78
2022/05/09 08:07:31;;;;;;;9.80;8.70;;;;;;;;;;4952353;28;20187;-78
2022/05/09 08:09:56;;;;;;;8.30;7.57;;;;;;;;;;4957211;28;20226;-79
2022/05/09 08:12:22;;;;;;;9.93;7.40;;;;;;;;;;4950454;28;20196;-79
2022/05/09 08:14:47;;;;;;;10.53;8.73;;;;;;;;;;4953639;28;20180;-78
2022/05/09 08:17:12;;;;;;;15.00;12.73;;;;;;;;;;4956975;28;20241;-79
2022/05/09 08:19:38;;;;;;;25.00;17.80;;;;;;;;;;4947790;28;20225;-78
2022/05/09 08:22:04;;;;;;;9.00;8.10;;;;;;;;;;4949976;28;20393;-79
2022/05/09 08:24:29;;;;;;;11.47;10.27;;;;;;;;;;4952497;28;20289;-78
2022/05/09 08:26:54;;;;;;;11.17;9.77;;;;;;;;;;4954980;28;20175;-78
2022/05/09 08:29:20;;;;;;;9.73;8.73;;;;;;;;;;4961319;28;20274;-78
2022/05/09 08:31:45;;;;;;;12.00;10.23;;;;;;;;;;4949670;28;20204;-78
2022/05/09 08:34:11;;;;;;;8.00;7.20;;;;;;;;;;4958592;28;20225;-79
2022/05/09 08:36:49;;;;;;;8.53;7.83;;;;;;;;;;4946130;28;20267;-78
2022/05/09 08:39:15;;;;;;;14.57;11.23;;;;;;;;;;4952323;28;20283;-79
2022/05/09 08:42:01;;;;;;;9.07;7.20;;;;;;;;;;4953080;28;20282;-78
2022/05/09 08:44:30;;;;;;;8.43;7.60;;;;;;;;;;4977160;28;20279;-79
2022/05/09 08:47:07;;;;;;;6.23;5.63;;;;;;;;;;4955428;28;20182;-78
2022/05/09 08:49:54;;;;;;;18.63;10.93;;;;;;;;;;4957212;28;20200;-78
2022/05/09 08:52:22;;;;;;;6.80;6.10;;;;;;;;;;4973003;28;20268;-78
2022/05/09 08:54:48;;;;;;;7.60;6.53;;;;;;;;;;4955373;28;20186;-78
2022/05/09 08:57:18;;;;;;;7.10;6.40;;;;;;;;;;4961289;28;20235;-78
2022/05/09 08:59:53;;;;;;;6.80;6.20;;;;;;;;;;4952000;28;20178;-79
2022/05/09 09:02:27;;;;;;;6.27;5.70;;;;;;;;;;4958159;28;20180;-79
2022/05/09 09:04:54;;;;;;;7.07;6.37;;;;;;;;;;4957110;28;20187;-78
2022/05/09 09:07:22;;;;;;;7.33;6.50;;;;;;;;;;4967397;28;20195;-79
2022/05/09 09:10:14;;;;;;;7.10;6.40;;;;;;;;;;4953022;28;20214;-79
2022/05/09 09:12:51;;;;;;;8.70;6.60;;;;;;;;;;4927911;28;20187;-79
2022/05/09 09:15:34;;;;;;;7.53;6.23;;;;;;;;;;4958959;28;20185;-78
2022/05/09 09:17:59;;;;;;;7.33;5.67;;;;;;;;;;4955929;28;20265;-78
2022/05/09 09:20:31;;;;;;;5.73;5.23;;;;;;;;;;4960635;28;20274;-79
2022/05/09 09:22:56;;;;;;;5.73;5.23;;;;;;;;;;4954262;28;20197;-77
2022/05/09 09:25:33;;;;;;;7.67;6.37;;;;;;;;;;4960085;28;20193;-78
2022/05/09 09:28:05;;;;;;;5.80;5.30;;;;;;;;;;4954334;28;20208;-79
2022/05/09 09:30:31;;;;;;;7.47;6.13;;;;;;;;;;4958095;28;20258;-78
2022/05/09 09:33:08;;;;;;;6.40;5.90;;;;;;;;;;4963220;28;20212;-78
2022/05/09 09:35:47;;;;;;;8.70;6.50;;;;;;;;;;4949857;28;20217;-78
2022/05/09 09:38:14;;;;;;;5.90;5.40;;;;;;;;;;4954746;28;20182;-79
2022/05/09 09:40:41;;;;;;;6.23;5.57;;;;;;;;;;4976456;28;20194;-79
2022/05/09 09:43:06;;;;;;;6.07;5.53;;;;;;;;;;4960060;28;20170;-79
2022/05/09 09:45:33;;;;;;;7.53;6.83;;;;;;;;;;4959188;28;20192;-78
2022/05/09 09:48:13;;;;;;;6.90;6.20;;;;;;;;;;4953716;28;20190;-79
2022/05/09 09:50:53;;;;;;;6.83;6.23;;;;;;;;;;4955365;28;20209;-79
2022/05/09 09:53:29;;;;;;;6.87;6.27;;;;;;;;;;4961527;28;20200;-79
2022/05/09 09:56:02;;;;;;;6.40;5.90;;;;;;;;;;4955437;28;20199;-79
2022/05/09 09:58:28;;;;;;;7.03;6.33;;;;;;;;;;4953571;28;20207;-80
2022/05/09 10:01:01;;;;;;;7.00;6.37;;;;;;;;;;4954585;28;20264;-78
2022/05/09 10:03:28;;;;;;;7.30;6.37;;;;;;;;;;4953425;28;20221;-78
2022/05/09 10:05:54;;;;;;;7.57;6.30;;;;;;;;;;4956155;28;20194;-78
2022/05/09 10:08:38;;;;;;;6.70;6.03;;;;;;;;;;4954396;28;20178;-78
2022/05/09 10:11:08;;;;;;;7.70;6.70;;;;;;;;;;4955653;28;20215;-79
2022/05/09 10:13:39;;;;;;;7.67;6.87;;;;;;;;;;4952612;28;20184;-79
2022/05/09 10:16:11;;;;;;;7.27;6.23;;;;;;;;;;4958349;28;20235;-78
2022/05/09 10:18:36;;;;;;;7.23;6.63;;;;;;;;;;4950203;28;20179;-78
2022/05/09 10:21:12;;;;;;;6.23;5.63;;;;;;;;;;4950692;28;20249;-78
2022/05/09 10:26:31;;;;;;;6.50;5.43;;;;;;;;;;4955307;28;20285;-79
2022/05/09 10:28:58;;;;;;;6.80;6.10;;;;;;;;;;4953781;28;20234;-78
2022/05/09 10:31:26;;;;;;;7.03;6.20;;;;;;;;;;4949702;28;20179;-79
2022/05/09 10:33:58;;;;;;;7.43;5.97;;;;;;;;;;4949910;28;20289;-79
2022/05/09 10:36:29;;;;;;;7.60;6.77;;;;;;;;;;4950537;28;20186;-79
2022/05/09 10:39:03;;;;;;;6.13;5.60;;;;;;;;;;4950064;28;20271;-78
2022/05/09 10:41:31;;;;;;;7.17;6.43;;;;;;;;;;4952710;28;20170;-78
2022/05/09 10:44:05;;;;;;;6.43;5.90;;;;;;;;;;4952774;28;20186;-79
2022/05/09 10:46:48;;;;;;;6.53;5.57;;;;;;;;;;4948979;28;20179;-79
2022/05/09 10:49:20;;;;;;;6.97;6.07;;;;;;;;;;4963695;28;20210;-78
2022/05/09 10:51:52;;;;;;;7.03;5.73;;;;;;;;;;4952493;28;20176;-78
2022/05/09 10:54:18;;;;;;;6.67;6.17;;;;;;;;;;4954851;28;20267;-80
2022/05/09 10:56:45;;;;;;;6.97;6.37;;;;;;;;;;4952633;28;20182;-79
2022/05/09 10:59:12;;;;;;;6.63;5.90;;;;;;;;;;4954650;28;20193;-79
2022/05/09 11:02:01;;;;;;;7.00;6.40;;;;;;;;;;4954257;28;20253;-79
2022/05/09 11:04:29;;;;;;;8.13;6.80;;;;;;;;;;4950460;28;20188;-79
2022/05/09 11:07:07;;;;;;;7.10;6.50;;;;;;;;;;4959130;28;20193;-79
2022/05/09 11:09:42;;;;;;;9.87;7.90;;;;;;;;;;4953750;28;20239;-79
2022/05/09 11:12:10;;;;;;;9.43;8.53;;;;;;;;;;4952621;28;20169;-79
2022/05/09 11:14:54;;;;;;;7.93;7.23;;;;;;;;;;4952171;28;20178;-78
2022/05/09 11:17:24;;;;;;;8.40;7.70;;;;;;;;;;4955361;28;20189;-79
2022/05/09 11:20:07;;;;;;;7.37;6.57;;;;;;;;;;4949905;28;20477;-79
2022/05/09 11:22:35;;;;;;;8.27;7.00;;;;;;;;;;4950221;28;20220;-79
2022/05/09 11:25:19;;;;;;;7.63;6.93;;;;;;;;;;4952268;28;20197;-79
2022/05/09 11:28:03;;;;;;;7.33;6.73;;;;;;;;;;4947226;28;20188;-79
2022/05/09 11:30:32;;;;;;;9.33;7.27;;;;;;;;;;4966887;28;20210;-79
2022/05/09 11:33:19;;;;;;;8.57;7.77;;;;;;;;;;4950068;28;20205;-78
2022/05/09 11:35:47;;;;;;;7.87;7.03;;;;;;;;;;4959198;28;20271;-78
2022/05/09 11:38:24;;;;;;;7.23;6.63;;;;;;;;;;4952353;28;20406;-79
2022/05/09 11:40:53;;;;;;;7.50;6.20;;;;;;;;;;4948163;28;20195;-79
2022/05/09 11:43:34;;;;;;;6.83;6.23;;;;;;;;;;4949492;28;20182;-78
2022/05/09 11:46:18;;;;;;;6.40;5.90;;;;;;;;;;4957041;28;20200;-78
2022/05/09 11:48:48;;;;;;;6.97;6.30;;;;;;;;;;4962047;28;20195;-78
2022/05/09 11:51:22;;;;;;;7.40;6.80;;;;;;;;;;4951114;28;20228;-78
2022/05/09 11:53:50;;;;;;;6.47;5.87;;;;;;;;;;4948229;28;20239;-78
2022/05/09 11:56:15;;;;;;;7.07;6.23;;;;;;;;;;4952997;28;20207;-78
2022/05/09 11:58:43;;;;;;;8.17;7.37;;;;;;;;;;4952056;28;20181;-79
2022/05/09 12:01:08;;;;;;;7.30;6.70;;;;;;;;;;4954908;28;20183;-78
2022/05/09 12:03:39;;;;;;;6.18;5.57;;;;;;;;;;4949712;28;20276;-78
2022/05/09 12:06:05;;;;;;;7.00;5.83;;;;;;;;;;4956122;28;20189;-79
2022/05/09 12:08:44;;;;;;;6.57;6.03;;;;;;;;;;4953424;28;20380;-79
2022/05/09 12:11:25;;;;;;;5.60;5.20;;;;;;;;;;4964373;28;20224;-78
2022/05/09 12:13:51;;;;;;;5.85;5.13;;;;;;;;;;4953614;28;20272;-79
2022/05/09 12:16:39;;;;;;;6.32;5.28;;;;;;;;;;4950051;28;20261;-79
2022/05/09 12:19:13;;;;;;;8.43;5.97;;;;;;;;;;4952068;28;20245;-78
2022/05/09 12:21:38;;;;;;;6.65;6.05;;;;;;;;;;4948324;28;20182;-79
2022/05/09 12:24:10;;;;;;;7.53;5.82;;;;;;;;;;4949197;28;20177;-78
2022/05/09 12:26:36;;;;;;;7.10;6.50;;;;;;;;;;4946583;28;20183;-79
2022/05/09 12:29:16;;;;;;;6.90;6.18;;;;;;;;;;4951168;28;20188;-79
2022/05/09 12:31:42;;;;;;;6.30;5.78;;;;;;;;;;4939223;28;20178;-78
2022/05/09 12:34:10;;;;;;;6.57;6.07;;;;;;;;;;4949171;28;20233;-79
2022/05/09 12:36:35;;;;;;;6.03;5.43;;;;;;;;;;4954837;28;20233;-79
2022/05/09 12:39:01;;;;;;;5.68;5.22;;;;;;;;;;4951928;28;20185;-79
2022/05/09 12:41:30;;;;;;;5.32;4.90;;;;;;;;;;4953315;28;20178;-79
2022/05/09 12:43:57;;;;;;;6.90;5.70;;;;;;;;;;4952585;28;20209;-78
2022/05/09 12:46:25;;;;;;;5.63;5.18;;;;;;;;;;4945304;28;20186;-79
2022/05/09 12:48:51;;;;;;;5.60;5.20;;;;;;;;;;4958930;28;20177;-79
2022/05/09 12:51:16;;;;;;;6.40;5.90;;;;;;;;;;4956830;28;20217;-79
2022/05/09 12:53:42;;;;;;;6.40;5.75;;;;;;;;;;4967310;28;20336;-79
2022/05/09 12:56:08;;;;;;;6.35;5.85;;;;;;;;;;4947764;28;20197;-78
2022/05/09 12:58:35;;;;;;;6.45;5.85;;;;;;;;;;4953115;28;20557;-79
2022/05/09 13:01:05;;;;;;;8.35;5.97;;;;;;;;;;4951046;28;20188;-79
2022/05/09 13:03:32;;;;;;;32.22;7.78;;;;;;;;;;4950562;28;20177;-79
2022/05/09 13:06:08;;;;;;;7.07;6.38;;;;;;;;;;4953110;28;20170;-79
2022/05/09 13:08:38;;;;;;;9.20;6.43;;;;;;;;;;4950747;28;20180;-78
2022/05/09 13:11:06;;;;;;;7.18;6.57;;;;;;;;;;4948440;28;20201;-78
2022/05/09 13:13:33;;;;;;;7.63;6.90;;;;;;;;;;4947434;28;20190;-78
2022/05/09 13:16:01;;;;;;;6.88;6.18;;;;;;;;;;4951629;28;20188;-79
2022/05/09 13:18:28;;;;;;;8.15;7.20;;;;;;;;;;4948946;28;20181;-79
2022/05/09 13:20:57;;;;;;;7.18;6.18;;;;;;;;;;4945317;28;20261;-82
2022/05/09 13:23:34;;;;;;;6.43;5.82;;;;;;;;;;4948165;28;20212;-78
2022/05/09 13:26:01;;;;;;;6.30;5.80;;;;;;;;;;4957865;28;20185;-78
2022/05/09 13:28:30;;;;;;;6.75;6.15;;;;;;;;;;4948835;28;20460;-79
2022/05/09 13:30:56;;;;;;;6.82;6.22;;;;;;;;;;4955095;28;20257;-79
2022/05/09 13:33:23;;;;;;;7.18;6.57;;;;;;;;;;4956525;28;20235;-78
2022/05/09 13:36:02;;;;;;;6.75;6.25;;;;;;;;;;4963469;28;20184;-78
2022/05/09 13:38:32;;;;;;;7.30;5.75;;;;;;;;;;4953808;28;20577;-78
2022/05/09 13:41:04;;;;;;;6.05;5.60;;;;;;;;;;4957117;28;20289;-78
2022/05/09 13:43:30;;;;;;;6.93;6.43;;;;;;;;;;4952135;28;20182;-78
2022/05/09 13:45:59;;;;;;;6.10;5.60;;;;;;;;;;4954855;28;20208;-78
2022/05/09 13:48:24;;;;;;;6.50;6.00;;;;;;;;;;4968474;28;20185;-78
2022/05/09 13:50:52;;;;;;;6.63;5.40;;;;;;;;;;4951122;28;20217;-78
2022/05/09 13:53:19;;;;;;;5.43;4.93;;;;;;;;;;4955391;28;20269;-79
2022/05/09 13:55:45;;;;;;;5.28;4.78;;;;;;;;;;4972985;28;20182;-78
2022/05/09 13:58:15;;;;;;;5.57;5.07;;;;;;;;;;4952898;28;20232;-79
2022/05/09 14:00:44;;;;;;;6.50;5.90;;;;;;;;;;4956702;28;20188;-78
2022/05/09 14:03:48;;;;;;;6.10;5.65;;;;;;;;;;4974775;28;20193;-78
2022/05/09 14:06:18;;;;;;;6.30;4.80;;;;;;;;;;4911529;29;20195;-79
2022/05/09 14:08:47;;;;;;;8.60;6.38;;;;;;;;;;4915800;29;20196;-79
2022/05/09 14:11:13;;;;;;;5.18;4.78;;;;;;;;;;4901504;29;20354;-78
2022/05/09 14:13:39;;;;;;;5.72;5.30;;;;;;;;;;4916069;29;20366;-78
2022/05/09 14:16:41;;;;;;;5.60;5.13;;;;;;;;;;4901181;29;20245;-78
2022/05/09 14:19:06;;;;;;;5.20;4.80;;;;;;;;;;4823361;29;20216;-78
2022/05/09 14:21:52;;;;;;;5.75;5.30;;;;;;;;;;4831242;29;20221;-78
2022/05/09 14:24:26;;;;;;;5.53;5.03;;;;;;;;;;4825113;29;20460;-78
2022/05/09 14:29:38;;;;;;;7.25;5.25;;;;;;;;;;4844795;29;20241;-79
2022/05/09 14:32:09;;;;;;;5.22;4.82;;;;;;;;;;4837801;29;20189;-79
2022/05/09 14:34:36;;;;;;;9.07;5.28;;;;;;;;;;4834059;29;20282;-78
2022/05/09 14:37:21;;;;;;;5.35;4.88;;;;;;;;;;4863147;29;20283;-78
2022/05/09 14:39:55;;;;;;;5.07;4.68;;;;;;;;;;4873849;29;20517;-78
2022/05/09 14:42:20;;;;;;;13.15;6.15;;;;;;;;;;4873313;29;20195;-78
2022/05/09 14:45:01;;;;;;;6.07;5.65;;;;;;;;;;4870756;29;20181;-78
2022/05/09 14:47:28;;;;;;;5.32;4.93;;;;;;;;;;4878665;29;20192;-78
2022/05/09 14:50:08;;;;;;;5.57;5.18;;;;;;;;;;4875397;29;20298;-79
2022/05/09 14:52:33;;;;;;;5.32;4.50;;;;;;;;;;4898497;28;20185;-78
2022/05/09 14:57:57;;;;;;;6.57;5.40;;;;;;;;;;4955466;28;20269;-78
2022/05/09 15:00:26;;;;;;;4.57;4.28;;;;;;;;;;4952587;28;20200;-78
2022/05/09 15:02:56;;;;;;;4.50;4.13;;;;;;;;;;4952532;28;20244;-77
2022/05/09 15:05:21;;;;;;;5.18;4.50;;;;;;;;;;4949475;28;20192;-78